Time;durP1;ratioP1;P1;durP2;ratioP2;P2;SDS_P1;SDS_P2;PMS_P1;PMS_P2;Temp;Humidity;BMP_temperature;BMP_pressure;BME280_temperature;BME280_humidity;BME280_pressure;Samples;Min_cycle;Max_cycle;Signal;HPM_P1;HPM_P2
2021/04/05 00:01:18;;;;;;;;;;;;;;;19.80;56.57;101118.34;5131411;27;1208;-66
2021/04/05 00:03:45;;;;;;;;;;;;;;;19.80;56.68;101120.13;5131549;27;1037;-66
2021/04/05 00:06:12;;;;;;;;;;;;;;;19.78;56.38;101120.22;5131485;27;1168;-66
2021/04/05 00:08:38;;;;;;;;;;;;;;;19.77;56.01;101115.88;5130675;27;915;-66
2021/04/05 00:11:05;;;;;;;;;;;;;;;19.78;56.62;101122.88;5130359;27;1110;-66
2021/04/05 00:13:33;;;;;;;;;;;;;;;19.76;56.18;101115.97;5112926;27;1203;-66
2021/04/05 00:15:59;;;;;;;;;;;;;;;19.75;56.03;101111.63;5131306;27;1987;-66
2021/04/05 00:18:26;;;;;;;;;;;;;;;19.75;56.22;101109.81;5130881;27;1291;-66
2021/04/05 00:20:59;;;;;;;;;;;;;;;19.74;56.40;101104.63;5130957;27;1075;-67
2021/04/05 00:23:25;;;;;;;;;;;;;;;19.73;56.58;101102.94;5131361;27;1310;-66
2021/04/05 00:25:51;;;;;;;;;;;;;;;19.72;56.41;101103.84;5130779;27;840;-67
2021/04/05 00:28:17;;;;;;;;;;;;;;;19.70;56.69;101101.28;5130875;27;1196;-67
2021/04/05 00:30:44;;;;;;;;;;;;;;;19.70;56.57;101098.63;5130599;27;1032;-67
2021/04/05 00:33:11;;;;;;;;;;;;;;;19.71;57.07;101097.72;5112406;27;1208;-67
2021/04/05 00:35:38;;;;;;;;;;;;;;;19.70;56.84;101096.00;5130585;27;1969;-67
2021/04/05 00:38:06;;;;;;;;;;;;;;;19.69;56.70;101090.81;5130489;27;1300;-67
2021/04/05 00:40:35;;;;;;;;;;;;;;;19.68;56.79;101089.09;5130479;27;940;-68
2021/04/05 00:43:03;;;;;;;;;;;;;;;19.66;56.96;101089.19;5130291;27;1238;-67
2021/04/05 00:45:29;;;;;;;;;;;;;;;19.67;57.09;101090.88;5130317;27;861;-67
2021/04/05 00:47:56;;;;;;;;;;;;;;;19.68;57.00;101091.72;5130597;27;1327;-67
2021/04/05 00:50:26;;;;;;;;;;;;;;;19.65;57.18;101087.47;5130921;27;806;-67
2021/04/05 00:52:52;;;;;;;;;;;;;;;19.65;57.36;101092.75;5130603;27;1542;-67
2021/04/05 00:55:20;;;;;;;;;;;;;;;19.63;57.28;101086.72;5130452;27;1138;-68
2021/04/05 00:57:46;;;;;;;;;;;;;;;19.62;57.34;101082.38;5130288;27;1971;-67
2021/04/05 01:00:15;;;;;;;;;;;;;;;19.62;57.56;101082.38;5129544;27;845;-68
2021/04/05 01:02:42;;;;;;;;;;;;;;;19.59;57.63;101079.88;5130428;27;1303;-67
2021/04/05 01:05:09;;;;;;;;;;;;;;;19.59;57.66;101066.69;5131077;27;789;-67
2021/04/05 01:07:36;;;;;;;;;;;;;;;19.57;57.73;101072.06;5130481;27;1318;-65
2021/04/05 01:10:04;;;;;;;;;;;;;;;19.56;57.62;101069.50;5130364;27;800;-65
2021/04/05 01:12:30;;;;;;;;;;;;;;;19.56;57.71;101061.56;5130434;27;1302;-65
2021/04/05 01:14:57;;;;;;;;;;;;;;;19.55;57.75;101057.19;5130294;27;1131;-66
2021/04/05 01:17:23;;;;;;;;;;;;;;;19.54;57.82;101058.16;5111468;27;1906;-66
2021/04/05 01:19:49;;;;;;;;;;;;;;;19.54;57.87;101059.03;5130184;27;1103;-66
2021/04/05 01:22:16;;;;;;;;;;;;;;;19.52;57.83;101060.88;5111878;27;1353;-65
2021/04/05 01:24:42;;;;;;;;;;;;;;;19.53;57.87;101064.38;5130456;27;1031;-65
2021/04/05 01:27:08;;;;;;;;;;;;;;;19.52;57.86;101066.16;5129967;27;1326;-65
2021/04/05 01:29:35;;;;;;;;;;;;;;;19.51;57.88;101053.03;5130173;27;1079;-66
2021/04/05 01:32:02;;;;;;;;;;;;;;;19.50;58.07;101056.63;5129496;27;1312;-66
2021/04/05 01:34:29;;;;;;;;;;;;;;;19.50;57.90;101061.91;5111498;28;1210;-65
2021/04/05 01:36:59;;;;;;;;;;;;;;;19.49;57.77;101053.13;5110843;28;1988;-65
2021/04/05 01:39:26;;;;;;;;;;;;;;;19.48;57.98;101056.72;5130165;28;1167;-66
2021/04/05 01:41:52;;;;;;;;;;;;;;;19.48;57.90;101055.84;5129627;28;1258;-66
2021/04/05 01:44:18;;;;;;;;;;;;;;;19.46;58.14;101055.06;5129506;28;995;-66
2021/04/05 01:46:45;;;;;;;;;;;;;;;19.44;58.03;101052.53;5130015;28;1240;-66
2021/04/05 01:49:11;;;;;;;;;;;;;;;19.45;57.90;101056.03;5111390;28;1134;-66
2021/04/05 01:51:37;;;;;;;;;;;;;;;19.46;58.11;101050.63;5129435;28;1529;-65
2021/04/05 01:54:04;;;;;;;;;;;;;;;19.46;58.03;101052.44;5129962;28;1119;-66
2021/04/05 01:56:30;;;;;;;;;;;;;;;19.44;58.10;101046.38;5129331;28;1967;-66
2021/04/05 01:58:56;;;;;;;;;;;;;;;19.44;58.06;101052.53;5129765;28;927;-66
2021/04/05 02:01:25;;;;;;;;;;;;;;;19.43;58.08;101044.66;5129044;28;1330;-66
2021/04/05 02:03:51;;;;;;;;;;;;;;;19.43;58.07;101049.94;5129847;28;1086;-66
2021/04/05 02:06:27;;;;;;;;;;;;;;;19.42;58.17;101045.63;5129339;28;1313;-66
2021/04/05 02:08:54;;;;;;;;;;;;;;;19.41;58.13;101041.28;5111171;28;1050;-66
2021/04/05 02:11:25;;;;;;;;;;;;;;;19.39;58.09;101035.19;5110600;28;1259;-66
2021/04/05 02:13:53;;;;;;;;;;;;;;;19.39;58.13;101043.13;5129459;28;1047;-66
2021/04/05 02:16:21;;;;;;;;;;;;;;;19.40;58.24;101036.91;5110923;28;1905;-66
2021/04/05 02:18:48;;;;;;;;;;;;;;;19.39;58.34;101036.09;5129693;28;1103;-66
2021/04/05 02:21:15;;;;;;;;;;;;;;;19.40;58.32;101035.13;5129299;28;1229;-66
2021/04/05 02:23:42;;;;;;;;;;;;;;;19.38;58.15;101033.47;5129542;28;1135;-66
2021/04/05 02:26:14;;;;;;;;;;;;;;;19.38;58.18;101033.47;5129237;28;1275;-66
2021/04/05 02:28:42;;;;;;;;;;;;;;;19.37;58.19;101032.63;5129405;28;983;-65
2021/04/05 02:31:09;;;;;;;;;;;;;;;19.36;58.29;101028.25;5110677;28;1267;-65
2021/04/05 02:33:38;;;;;;;;;;;;;;;19.37;58.23;101034.41;5111026;28;1318;-66
2021/04/05 02:36:07;;;;;;;;;;;;;;;19.36;58.31;101036.19;5110585;28;1975;-66
2021/04/05 02:38:35;;;;;;;;;;;;;;;19.36;58.26;101038.00;5129682;28;1143;-66
2021/04/05 02:41:03;;;;;;;;;;;;;;;19.36;58.28;101035.38;5132512;27;1040;-66
2021/04/05 02:43:31;;;;;;;;;;;;;;;19.36;58.32;101035.38;5132956;27;1043;-66
2021/04/05 02:45:57;;;;;;;;;;;;;;;19.35;58.39;101041.56;5132698;27;877;-66
2021/04/05 02:48:24;;;;;;;;;;;;;;;19.34;58.29;101034.56;5132876;27;1176;-66
2021/04/05 02:50:51;;;;;;;;;;;;;;;19.33;58.18;101033.72;5114705;27;869;-66
2021/04/05 02:53:17;;;;;;;;;;;;;;;19.33;58.25;101032.88;5131992;27;1524;-66
2021/04/05 02:55:44;;;;;;;;;;;;;;;19.33;58.17;101028.44;5132442;27;2308;-66
2021/04/05 02:58:10;;;;;;;;;;;;;;;19.32;58.17;101025.88;5132696;27;1240;-66
2021/04/05 03:00:36;;;;;;;;;;;;;;;19.32;58.21;101033.81;5132546;27;990;-66
2021/04/05 03:03:17;;;;;;;;;;;;;;;19.30;58.22;101028.59;5132613;27;1287;-66
2021/04/05 03:05:44;;;;;;;;;;;;;;;19.31;58.14;101026.81;5113714;27;1314;-66
2021/04/05 03:08:14;;;;;;;;;;;;;;;19.32;58.13;101025.88;5132329;27;1235;-66
2021/04/05 03:10:40;;;;;;;;;;;;;;;19.31;58.22;101032.09;5132307;27;826;-66
2021/04/05 03:13:07;;;;;;;;;;;;;;;19.31;58.20;101029.47;5132210;27;1250;-66
2021/04/05 03:15:33;;;;;;;;;;;;;;;19.30;58.14;101030.41;5132398;27;830;-66
2021/04/05 03:18:01;;;;;;;;;;;;;;;19.30;58.25;101035.69;5096550;27;1986;-66
2021/04/05 03:20:29;;;;;;;;;;;;;;;19.27;58.20;101027.94;5132284;27;1088;-66
2021/04/05 03:22:56;;;;;;;;;;;;;;;19.27;58.25;101030.59;5132159;27;1236;-66
2021/04/05 03:25:23;;;;;;;;;;;;;;;19.27;58.15;101025.31;5113952;27;912;-66
2021/04/05 03:27:50;;;;;;;;;;;;;;;19.29;58.25;101031.34;5113453;27;1252;-66
2021/04/05 03:30:24;;;;;;;;;;;;;;;19.28;58.19;101029.63;5132202;27;790;-66
2021/04/05 03:32:54;;;;;;;;;;;;;;;19.29;58.27;101026.06;5131852;27;1321;-66
2021/04/05 03:35:22;;;;;;;;;;;;;;;19.29;58.29;101020.78;5131753;27;861;-66
2021/04/05 03:37:49;;;;;;;;;;;;;;;19.27;58.41;101020.84;5131654;27;1968;-66
2021/04/05 03:40:16;;;;;;;;;;;;;;;19.27;58.55;101014.75;5132282;27;872;-66
2021/04/05 03:42:47;;;;;;;;;;;;;;;19.26;58.51;101020.94;5133349;27;1298;-65
2021/04/05 03:45:36;;;;;;;;;;;;;;;19.26;58.60;101024.44;5113965;27;853;-65
2021/04/05 03:48:11;;;;;;;;;;;;;;;19.26;58.77;101028.88;5131490;27;1251;-66
2021/04/05 03:50:43;;;;;;;;;;;;;;;19.26;58.71;101026.22;5131360;27;757;-66
2021/04/05 03:53:24;;;;;;;;;;;;;;;19.23;58.87;101027.25;5112637;27;1413;-66
2021/04/05 03:55:55;;;;;;;;;;;;;;;19.23;58.83;101024.63;5131424;27;1930;-66
2021/04/05 03:58:22;;;;;;;;;;;;;;;19.23;58.76;101027.25;5131557;27;1408;-66
2021/04/05 04:00:50;;;;;;;;;;;;;;;19.23;58.88;101029.91;5113268;27;861;-67
2021/04/05 04:03:19;;;;;;;;;;;;;;;19.25;58.85;101030.66;5131977;27;1330;-67
2021/04/05 04:05:53;;;;;;;;;;;;;;;19.22;58.99;101029.97;5131512;27;1473;-67
2021/04/05 04:10:50;;;;;;;;;;;;;;;19.22;59.00;101035.25;5112639;27;1398;-67
2021/04/05 04:13:18;;;;;;;;;;;;;;;19.22;59.08;101027.31;5131156;27;1210;-67
2021/04/05 04:15:48;;;;;;;;;;;;;;;19.22;58.95;101022.03;5131218;27;1913;-67
2021/04/05 04:18:16;;;;;;;;;;;;;;;19.22;58.98;101030.81;5131448;27;1290;-67
2021/04/05 04:20:42;;;;;;;;;;;;;;;19.24;58.97;101022.81;5131099;27;818;-67
2021/04/05 04:23:09;;;;;;;;;;;;;;;19.22;59.04;101029.97;5131246;27;1186;-67
2021/04/05 04:25:35;;;;;;;;;;;;;;;19.22;59.09;101024.69;5131220;27;860;-67
2021/04/05 04:28:03;;;;;;;;;;;;;;;19.21;59.18;101028.28;5130909;27;1318;-66
2021/04/05 04:30:33;;;;;;;;;;;;;;;19.22;59.10;101024.69;5130554;27;1114;-67
2021/04/05 04:33:03;;;;;;;;;;;;;;;19.21;59.16;101023.81;5130934;27;1393;-67
2021/04/05 04:35:29;;;;;;;;;;;;;;;19.22;59.10;101024.69;5130878;27;852;-67
2021/04/05 04:37:56;;;;;;;;;;;;;;;19.19;59.15;101023.06;5112007;27;2055;-66
2021/04/05 04:40:24;;;;;;;;;;;;;;;19.19;59.18;101028.34;5111917;27;770;-67
2021/04/05 04:42:51;;;;;;;;;;;;;;;19.20;59.25;101026.56;5130738;27;1208;-66
2021/04/05 04:45:18;;;;;;;;;;;;;;;19.19;59.27;101033.63;5130755;27;825;-66
2021/04/05 04:47:44;;;;;;;;;;;;;;;19.19;59.25;101035.41;5130519;27;1298;-66
2021/04/05 04:50:13;;;;;;;;;;;;;;;19.19;59.24;101028.34;5112256;27;1549;-67
2021/04/05 04:52:39;;;;;;;;;;;;;;;19.19;59.29;101035.41;5130222;27;1428;-66
2021/04/05 04:55:08;;;;;;;;;;;;;;;19.18;59.31;101039.00;5094561;27;1496;-66
2021/04/05 04:57:34;;;;;;;;;;;;;;;19.18;59.39;101039.00;5111634;27;1968;-66
2021/04/05 05:00:01;;;;;;;;;;;;;;;19.17;59.21;101030.22;5130255;27;795;-67
2021/04/05 05:02:29;;;;;;;;;;;;;;;19.17;59.33;101037.28;5111344;27;1273;-66
2021/04/05 05:04:56;;;;;;;;;;;;;;;19.17;59.33;101032.00;5130147;27;932;-66
2021/04/05 05:07:24;;;;;;;;;;;;;;;19.15;59.24;101034.72;5111192;27;1240;-66
2021/04/05 05:09:50;;;;;;;;;;;;;;;19.09;59.31;101021.84;5129905;27;778;-67
2021/04/05 05:12:16;;;;;;;;;;;;;;;19.15;59.33;101029.44;5111188;27;1596;-67
2021/04/05 05:14:43;;;;;;;;;;;;;;;19.15;59.30;101029.44;5095753;28;1512;-67
2021/04/05 05:17:10;;;;;;;;;;;;;;;19.15;59.26;101033.88;5105309;28;1998;-67
2021/04/05 05:19:39;;;;;;;;;;;;;;;19.15;59.31;101025.97;5099656;28;986;-67
2021/04/05 05:22:07;;;;;;;;;;;;;;;19.14;59.28;101025.13;5088660;28;1236;-67
2021/04/05 05:24:34;;;;;;;;;;;;;;;19.15;59.47;101023.31;5088671;28;1318;-67
2021/04/05 05:27:01;;;;;;;;;;;;;;;19.15;59.47;101025.97;5100554;28;1271;-67
2021/04/05 05:29:27;;;;;;;;;;;;;;;19.14;59.49;101035.69;5109693;28;1314;-66
2021/04/05 05:31:54;;;;;;;;;;;;;;;19.13;59.51;101033.97;5109489;28;1334;-66
2021/04/05 05:34:21;;;;;;;;;;;;;;;19.13;59.60;101041.88;5109712;28;1238;-67
2021/04/05 05:36:48;;;;;;;;;;;;;;;19.13;59.58;101039.25;5109176;28;1910;-67
2021/04/05 05:39:15;;;;;;;;;;;;;;;19.14;59.55;101040.09;5074243;28;1141;-66
2021/04/05 05:41:44;;;;;;;;;;;;;;;19.13;59.67;101041.03;5088903;28;1220;-67
2021/04/05 05:44:33;;;;;;;;;;;;;;;19.12;59.50;101041.97;5089174;28;1185;-67
2021/04/05 05:47:06;;;;;;;;;;;;;;;19.12;59.58;101047.25;5062602;28;1204;-66
2021/04/05 05:49:33;;;;;;;;;;;;;;;19.12;59.57;101044.63;5071084;28;1194;-67
2021/04/05 05:52:02;;;;;;;;;;;;;;;19.11;59.54;101049.03;5088450;28;1623;-66
2021/04/05 05:54:28;;;;;;;;;;;;;;;19.10;59.70;101053.47;5070746;28;966;-67
2021/04/05 05:57:03;;;;;;;;;;;;;;;19.10;59.68;101053.47;5070539;28;1941;-66
2021/04/05 05:59:31;;;;;;;;;;;;;;;19.10;59.67;101061.38;5089316;28;1281;-67
2021/04/05 06:02:15;;;;;;;;;;;;;;;19.09;59.71;101059.66;5089143;28;1232;-66
2021/04/05 06:04:51;;;;;;;;;;;;;;;19.10;59.61;101058.75;5088926;28;888;-67
2021/04/05 06:07:36;;;;;;;;;;;;;;;19.09;59.70;101064.94;5069868;28;1183;-67
2021/04/05 06:10:07;;;;;;;;;;;;;;;19.13;59.65;101064.78;5088895;28;794;-67
2021/04/05 06:12:33;;;;;;;;;;;;;;;19.13;59.67;101067.44;5070757;28;1277;-66
2021/04/05 06:15:20;;;;;;;;;;;;;;;19.08;59.64;101076.47;5071923;28;790;-66
2021/04/05 06:18:04;;;;;;;;;;;;;;;19.10;59.68;101065.81;5074189;28;1918;-66
2021/04/05 06:20:37;;;;;;;;;;;;;;;19.06;59.91;101067.75;5092432;28;1080;-66
2021/04/05 06:23:12;;;;;;;;;;;;;;;19.15;59.66;101069.03;5095134;28;1613;-67
2021/04/05 06:25:57;;;;;;;;;;;;;;;19.15;59.84;101068.22;5108408;28;1518;-66
2021/04/05 06:28:41;;;;;;;;;;;;;;;19.14;59.68;101070.00;5100202;27;1526;-68
2021/04/05 06:31:34;;;;;;;;;;;;;;;19.14;59.61;101063.88;5084960;28;1390;-68
2021/04/05 06:34:09;;;;;;;;;;;;;;;19.14;59.73;101069.16;5079498;28;1595;-67
2021/04/05 06:36:54;;;;;;;;;;;;;;;19.15;59.50;101065.59;5082169;28;1981;-64
2021/04/05 06:39:25;;;;;;;;;;;;;;;19.16;59.54;101075.19;5106530;27;1525;-67
2021/04/05 06:41:58;;;;;;;;;;;;;;;19.14;59.47;101074.44;5073210;28;1236;-66
2021/04/05 06:44:39;;;;;;;;;;;;;;;19.14;59.32;101074.44;5105644;28;1577;-67
2021/04/05 06:47:25;;;;;;;;;;;;;;;19.23;60.36;101073.94;5093248;27;1399;-69
2021/04/05 06:50:11;;;;;;;;;;;;;;;19.23;59.38;101079.22;5105487;28;1236;-69
2021/04/05 06:52:58;;;;;;;;;;;;;;;19.22;59.34;101074.84;5020193;28;1547;-69
2021/04/05 06:55:45;;;;;;;;;;;;;;;19.21;59.35;101084.56;5072986;28;1506;-68
2021/04/05 06:58:28;;;;;;;;;;;;;;;19.24;59.16;101080.94;5081082;28;1898;-68
2021/04/05 07:01:14;;;;;;;;;;;;;;;19.31;60.02;101082.28;5082649;28;881;-67
2021/04/05 07:03:46;;;;;;;;;;;;;;;19.26;59.56;101084.34;5091803;28;1288;-69
2021/04/05 07:06:31;;;;;;;;;;;;;;;19.25;59.27;101079.97;5076827;28;1384;-67
2021/04/05 07:09:03;;;;;;;;;;;;;;;19.24;59.18;101078.28;5080494;28;1242;-67
2021/04/05 07:11:38;;;;;;;;;;;;;;;19.23;58.96;101080.06;5090212;28;1601;-69
2021/04/05 07:14:23;;;;;;;;;;;;;;;19.26;59.64;101084.34;5081547;28;1602;-69
2021/04/05 07:16:54;;;;;;;;;;;;;;;19.26;58.94;101079.91;5071854;28;1890;-69
2021/04/05 07:19:26;;;;;;;;;;;;;;;19.27;59.09;101078.13;5089857;28;1471;-68
2021/04/05 07:22:11;;;;;;;;;;;;;;;19.27;59.26;101083.41;5093598;28;1275;-65
2021/04/05 07:24:58;;;;;;;;;;;;;;;19.29;59.22;101081.53;5111925;28;1286;-66
2021/04/05 07:27:47;;;;;;;;;;;;;;;19.29;59.24;101084.16;5100045;28;1236;-65
2021/04/05 07:30:18;;;;;;;;;;;;;;;19.27;59.15;101080.78;5081427;28;1485;-68
2021/04/05 07:32:52;;;;;;;;;;;;;;;19.27;59.00;101075.47;5070726;28;1329;-66
2021/04/05 07:35:28;;;;;;;;;;;;;;;19.26;59.12;101082.56;5070946;28;1172;-66
2021/04/05 07:38:02;;;;;;;;;;;;;;;19.28;59.32;101077.16;5094734;28;1959;-65
2021/04/05 07:40:47;;;;;;;;;;;;;;;19.28;59.08;101087.72;5069061;28;1483;-68
2021/04/05 07:43:47;;;;;;;;;;;;;;;19.33;59.52;101086.53;5090649;28;1245;-69
2021/04/05 07:46:13;;;;;;;;;;;;;;;19.32;59.59;101084.88;5090303;28;1471;-69
2021/04/05 07:48:45;;;;;;;;;;;;;;;19.32;59.32;101081.38;5078642;28;1202;-67
2021/04/05 07:51:15;;;;;;;;;;;;;;;19.31;59.56;101079.66;5074139;28;1535;-70
2021/04/05 07:53:51;;;;;;;;;;;;;;;19.27;59.56;101076.31;5091946;28;1096;-69
2021/04/05 07:56:39;;;;;;;;;;;;;;;19.26;59.53;101079.91;5090602;28;1926;-71
2021/04/05 07:59:12;;;;;;;;;;;;;;;19.26;59.36;101082.56;5071023;28;1096;-70
2021/04/05 08:01:58;;;;;;;;;;;;;;;19.26;59.30;101087.84;5088620;28;1267;-72
2021/04/05 08:04:44;;;;;;;;;;;;;;;19.28;56.29;101093.00;5083442;28;1168;-67
2021/04/05 08:07:16;;;;;;;;;;;;;;;19.29;55.47;101095.59;5078779;28;1293;-66
2021/04/05 08:09:44;;;;;;;;;;;;;;;19.30;55.20;101097.28;5110594;28;774;-72
2021/04/05 08:12:11;;;;;;;;;;;;;;;19.30;55.23;101085.88;5103607;28;1283;-67
2021/04/05 08:14:55;;;;;;;;;;;;;;;19.30;55.57;101092.00;5110057;28;1167;-69
2021/04/05 08:17:25;;;;;;;;;;;;;;;19.35;59.17;101095.25;5095121;28;1897;-67
2021/04/05 08:19:56;;;;;;;;;;;;;;;19.34;56.70;101093.53;5075321;28;891;-68
2021/04/05 08:22:35;;;;;;;;;;;;;;;19.36;57.88;101096.13;5070504;28;1271;-71
2021/04/05 08:25:04;;;;;;;;;;;;;;;19.37;56.93;101092.53;5087952;28;817;-75
2021/04/05 08:27:31;;;;;;;;;;;;;;;19.37;56.11;101097.81;5081797;28;1322;-77
2021/04/05 08:30:01;;;;;;;;;;;;;;;19.37;55.76;101095.16;5089813;28;973;-74
2021/04/05 08:32:46;;;;;;;;;;;;;;;19.38;56.07;101095.09;5081241;28;1390;-71
2021/04/05 08:35:20;;;;;;;;;;;;;;;19.39;56.17;101095.97;5071188;28;1570;-75
2021/04/05 08:38:05;;;;;;;;;;;;;;;19.38;56.09;101089.81;5059649;28;1906;-68
2021/04/05 08:40:45;;;;;;;;;;;;;;;19.44;56.99;101093.94;5069805;28;858;-69
2021/04/05 08:43:14;;;;;;;;;;;;;;;19.44;56.52;101093.94;5071748;28;1322;-69
2021/04/05 08:45:44;;;;;;;;;;;;;;;19.41;56.35;101094.97;5071824;28;842;-67
2021/04/05 08:48:18;;;;;;;;;;;;;;;19.41;56.03;101097.59;5089594;28;1267;-67
2021/04/05 08:50:49;;;;;;;;;;;;;;;19.41;56.17;101094.09;5072847;28;838;-67
2021/04/05 08:53:19;;;;;;;;;;;;;;;19.42;56.55;101095.81;5051754;28;1720;-68
2021/04/05 08:55:46;;;;;;;;;;;;;;;19.42;56.75;101095.81;5051018;28;1238;-68
2021/04/05 08:58:25;;;;;;;;;;;;;;;19.43;56.57;101086.94;5051009;28;1995;-68
2021/04/05 09:00:53;;;;;;;;;;;;;;;19.45;57.43;101096.50;5069201;28;1582;-67
2021/04/05 09:03:26;;;;;;;;;;;;;;;19.49;58.06;101092.75;5064985;28;1346;-65
2021/04/05 09:06:14;;;;;;;;;;;;;;;19.64;58.96;101096.34;5075668;28;1550;-67
2021/04/05 09:08:42;;;;;;;;;;;;;;;19.50;56.65;101090.97;5052756;28;1425;-71
2021/04/05 09:11:08;;;;;;;;;;;;;;;19.37;54.69;101090.75;5084395;28;1329;-69
2021/04/05 09:13:37;;;;;;;;;;;;;;;19.29;54.14;101089.44;5088570;28;1157;-69
2021/04/05 09:16:18;;;;;;;;;;;;;;;19.29;54.23;101086.81;5070915;28;1261;-68
2021/04/05 09:18:48;;;;;;;;;;;;;;;19.27;53.77;101086.06;5088389;28;1149;-68
2021/04/05 09:21:14;;;;;;;;;;;;;;;19.26;53.13;101081.69;5067582;28;1383;-72
2021/04/05 09:23:40;;;;;;;;;;;;;;;19.31;52.09;101077.88;5063225;28;1407;-67
2021/04/05 09:26:29;;;;;;;;;;;;;;;19.30;51.91;101077.97;5068603;28;1433;-68
2021/04/05 09:28:55;;;;;;;;;;;;;;;19.26;51.19;101074.63;5080235;28;1726;-67
2021/04/05 09:31:31;;;;;;;;;;;;;;;19.26;51.87;101079.06;5067936;28;1358;-67
2021/04/05 09:34:03;;;;;;;;;;;;;;;19.28;51.73;101071.88;5081525;28;1200;-67
2021/04/05 09:36:38;;;;;;;;;;;;;;;19.28;52.02;101063.97;5080512;28;1929;-67
2021/04/05 09:39:23;;;;;;;;;;;;;;;19.24;51.87;101071.19;5056801;28;1267;-67
2021/04/05 09:41:49;;;;;;;;;;;;;;;19.30;52.31;101067.41;5088494;28;1366;-67
2021/04/05 09:44:28;;;;;;;;;;;;;;;19.41;54.71;101067.69;5085378;28;1208;-70
2021/04/05 09:46:58;;;;;;;;;;;;;;;19.37;53.55;101064.31;5063188;28;1291;-69
2021/04/05 09:49:43;;;;;;;;;;;;;;;19.32;53.50;101062.88;5079232;28;1297;-69
2021/04/05 09:52:21;;;;;;;;;;;;;;;19.37;53.14;101058.19;5093597;28;1396;-70
2021/04/05 09:54:49;;;;;;;;;;;;;;;19.42;56.25;101051.78;5092753;28;991;-72
2021/04/05 09:57:21;;;;;;;;;;;;;;;19.40;55.69;101053.63;5102784;28;1913;-71
2021/04/05 09:59:50;;;;;;;;;;;;;;;19.32;55.89;101037.31;5111833;27;1581;-71
2021/04/05 10:02:30;;;;;;;;;;;;;;;19.33;57.62;101048.75;5108409;28;1231;-72
2021/04/05 10:04:57;;;;;;;;;;;;;;;19.31;57.71;101055.88;5092779;28;1082;-72
2021/04/05 10:07:24;;;;;;;;;;;;;;;19.30;57.72;101048.91;5091789;28;1322;-70
2021/04/05 10:09:52;;;;;;;;;;;;;;;19.31;57.77;101045.31;5092419;28;832;-71
2021/04/05 10:12:21;;;;;;;;;;;;;;;19.30;57.99;101043.63;5091709;28;1459;-72
2021/04/05 10:15:00;;;;;;;;;;;;;;;19.31;57.84;101045.31;5092164;28;841;-71
2021/04/05 10:17:27;;;;;;;;;;;;;;;19.28;57.97;101034.91;5073468;28;1973;-73
2021/04/05 10:19:55;;;;;;;;;;;;;;;19.31;58.01;101029.47;5092366;28;782;-73
2021/04/05 10:22:22;;;;;;;;;;;;;;;19.30;57.94;101033.88;5073829;28;1333;-72
2021/04/05 10:24:49;;;;;;;;;;;;;;;19.24;57.80;101021.00;5092338;28;1086;-76
2021/04/05 10:27:17;;;;;;;;;;;;;;;19.31;57.74;101029.47;5092208;28;1220;-72
2021/04/05 10:29:44;;;;;;;;;;;;;;;19.31;57.62;101032.09;5092117;28;1208;-73
2021/04/05 10:32:17;;;;;;;;;;;;;;;19.30;57.71;101028.59;5092012;28;1294;-73
2021/04/05 10:34:45;;;;;;;;;;;;;;;19.28;57.80;101021.69;5091525;28;990;-72
2021/04/05 10:37:17;;;;;;;;;;;;;;;19.27;57.74;101022.66;5091537;28;1984;-73
2021/04/05 10:39:48;;;;;;;;;;;;;;;19.27;57.72;101020.84;5091588;28;825;-72
2021/04/05 10:42:23;;;;;;;;;;;;;;;19.24;57.85;101023.66;5073378;28;1339;-73
2021/04/05 10:44:52;;;;;;;;;;;;;;;19.25;57.81;101017.44;5091432;28;766;-73
2021/04/05 10:47:21;;;;;;;;;;;;;;;19.25;57.72;101013.94;5091320;28;1410;-73
2021/04/05 10:49:49;;;;;;;;;;;;;;;19.25;57.67;101011.31;5073040;28;802;-73
2021/04/05 10:52:19;;;;;;;;;;;;;;;19.24;57.57;101006.97;5073182;28;1304;-72
2021/04/05 10:54:50;;;;;;;;;;;;;;;19.25;57.63;101008.66;5073283;28;1164;-72
2021/04/05 10:57:29;;;;;;;;;;;;;;;19.24;57.64;101007.81;5091287;28;1967;-73
2021/04/05 10:59:57;;;;;;;;;;;;;;;19.25;57.55;101003.38;5071952;28;1233;-73
2021/04/05 11:02:32;;;;;;;;;;;;;;;19.24;57.50;100997.25;5072356;28;1294;-72
2021/04/05 11:05:12;;;;;;;;;;;;;;;19.24;57.48;101002.53;5098651;28;1435;-72
2021/04/05 11:07:39;;;;;;;;;;;;;;;19.24;57.44;100996.41;5091155;28;1334;-72
2021/04/05 11:10:09;;;;;;;;;;;;;;;19.24;57.58;100994.59;5105662;28;1115;-72
2021/04/05 11:12:37;;;;;;;;;;;;;;;19.24;57.46;100996.41;5111562;28;1218;-73
2021/04/05 11:15:04;;;;;;;;;;;;;;;19.24;57.50;100996.41;5093911;28;1896;-70
2021/04/05 11:17:32;;;;;;;;;;;;;;;19.23;57.53;100989.41;5079429;28;1909;-70
2021/04/05 11:20:01;;;;;;;;;;;;;;;19.24;57.41;100997.25;5091363;28;817;-70
2021/04/05 11:22:28;;;;;;;;;;;;;;;19.25;57.33;100982.25;5091652;28;1299;-70
2021/04/05 11:24:59;;;;;;;;;;;;;;;19.24;57.37;100978.75;5056662;28;1331;-70
2021/04/05 11:27:28;;;;;;;;;;;;;;;19.24;57.50;100970.00;5072867;28;1381;-71
2021/04/05 11:29:57;;;;;;;;;;;;;;;19.23;57.62;100971.78;5056647;28;1367;-70
2021/04/05 11:32:24;;;;;;;;;;;;;;;19.24;57.51;100980.56;5091516;28;1248;-70
2021/04/05 11:34:56;;;;;;;;;;;;;;;19.24;57.40;100976.13;5091324;28;821;-71
2021/04/05 11:37:27;;;;;;;;;;;;;;;19.24;57.51;100970.00;5090755;27;1973;-73
2021/04/05 11:40:22;;;;;;;;;;;;;;;19.39;57.56;100972.69;5078435;28;1713;-65
2021/04/05 11:42:50;;;;;;;;;;;;;;;19.50;53.50;100964.13;5074380;28;1438;-66
2021/04/05 11:45:27;;;;;;;;;;;;;;;19.48;50.64;100958.09;5084818;28;1430;-67
2021/04/05 11:47:54;;;;;;;;;;;;;;;19.51;49.53;100964.06;5090530;28;1476;-69
2021/04/05 11:50:26;;;;;;;;;;;;;;;19.47;48.99;100957.25;5108705;28;938;-71
2021/04/05 11:53:01;;;;;;;;;;;;;;;19.47;49.71;100956.38;5089767;28;1400;-69
2021/04/05 11:55:29;;;;;;;;;;;;;;;19.52;49.06;100938.47;5090468;28;1800;-68
2021/04/05 11:57:58;;;;;;;;;;;;;;;19.58;49.60;100938.97;5108839;28;1914;-69
2021/04/05 12:00:27;;;;;;;;;;;;;;;19.60;48.41;100936.25;5111295;27;1423;-68
2021/04/05 12:03:00;;;;;;;;;;;;;;;19.66;47.34;100935.91;5093952;28;1303;-68
2021/04/05 12:05:29;;;;;;;;;;;;;;;19.62;47.47;100929.94;5103148;28;778;-70
2021/04/05 12:08:01;;;;;;;;;;;;;;;19.64;46.61;100929.84;5087972;28;1235;-67
2021/04/05 12:10:28;;;;;;;;;;;;;;;19.63;46.50;100941.38;5088649;28;747;-67
2021/04/05 12:13:16;;;;;;;;;;;;;;;19.66;47.17;100917.41;5100454;28;1314;-65
2021/04/05 12:15:44;;;;;;;;;;;;;;;19.67;47.66;100916.44;5109042;28;1271;-67
2021/04/05 12:18:11;;;;;;;;;;;;;;;19.69;44.43;100917.22;5090370;28;1981;-68
2021/04/05 12:20:38;;;;;;;;;;;;;;;19.74;43.77;100909.88;5102277;28;1593;-67
2021/04/05 12:23:10;;;;;;;;;;;;;;;19.71;45.61;100911.84;5095692;28;1235;-67
2021/04/05 12:25:56;;;;;;;;;;;;;;;19.71;43.66;100923.28;5104595;28;1346;-67
2021/04/05 12:28:43;;;;;;;;;;;;;;;19.66;43.51;100904.19;5092738;28;1566;-69
2021/04/05 12:31:12;;;;;;;;;;;;;;;19.76;43.83;100900.06;5108305;28;1228;-70
2021/04/05 12:33:55;;;;;;;;;;;;;;;19.78;42.56;100895.56;5090319;28;1618;-65
2021/04/05 12:36:42;;;;;;;;;;;;;;;19.85;40.39;100888.13;5089267;28;1983;-67
2021/04/05 12:39:31;;;;;;;;;;;;;;;19.76;41.14;100883.38;5093350;28;1174;-67
2021/04/05 12:41:59;;;;;;;;;;;;;;;19.78;40.44;100884.97;5073344;28;1358;-68
2021/04/05 12:44:27;;;;;;;;;;;;;;;19.78;43.65;100877.03;5108228;28;1164;-66
2021/04/05 12:46:55;;;;;;;;;;;;;;;19.72;44.68;100869.47;5091519;28;1339;-66
2021/04/05 12:49:28;;;;;;;;;;;;;;;19.71;46.50;100873.06;5091627;28;1231;-64
2021/04/05 12:52:00;;;;;;;;;;;;;;;19.71;47.13;100864.28;5090785;28;1304;-65
2021/04/05 12:54:29;;;;;;;;;;;;;;;19.73;48.00;100859.75;5110033;28;1179;-67
2021/04/05 12:56:59;;;;;;;;;;;;;;;19.71;48.56;100857.19;5109531;28;1901;-68
2021/04/05 12:59:33;;;;;;;;;;;;;;;19.75;49.08;100840.22;5075480;28;1819;-66
2021/04/05 13:02:12;;;;;;;;;;;;;;;19.72;49.41;100853.63;5074504;28;1240;-64
2021/04/05 13:04:44;;;;;;;;;;;;;;;19.73;49.76;100850.00;5074481;28;1438;-66
2021/04/05 13:07:16;;;;;;;;;;;;;;;19.74;50.57;100858.81;5109373;28;1185;-65
2021/04/05 13:09:58;;;;;;;;;;;;;;;19.76;51.43;100849.00;5091133;28;1224;-65
2021/04/05 13:12:28;;;;;;;;;;;;;;;19.80;51.36;100842.56;5109011;28;1252;-68